createdAt,value
2024-05-09T00:00:22.455Z,58
2024-05-09T00:01:27.624Z,58
2024-05-09T00:02:33.742Z,58
2024-05-09T00:03:39.872Z,58
2024-05-09T00:04:45.968Z,58
2024-05-09T00:05:52.077Z,58
2024-05-09T00:06:58.192Z,58
2024-05-09T00:08:04.313Z,58
2024-05-09T00:09:10.489Z,58
2024-05-09T00:10:16.547Z,58
2024-05-09T00:11:22.659Z,58
2024-05-09T00:12:28.757Z,58
2024-05-09T00:13:35.058Z,58
2024-05-09T00:14:40.995Z,58
2024-05-09T00:15:46.142Z,58
2024-05-09T00:16:52.330Z,58
2024-05-09T00:17:58.467Z,58
2024-05-09T00:19:04.497Z,58
2024-05-09T00:20:10.680Z,58
2024-05-09T00:21:16.753Z,58
2024-05-09T00:22:22.845Z,58
2024-05-09T00:23:28.954Z,58
2024-05-09T00:24:35.102Z,58
2024-05-09T00:25:41.288Z,58
2024-05-09T00:26:47.315Z,58
2024-05-09T00:27:53.426Z,58
2024-05-09T00:28:59.558Z,58
2024-05-09T00:30:04.668Z,58
2024-05-09T00:31:10.789Z,58
2024-05-09T00:32:16.926Z,58
2024-05-09T00:33:23.012Z,58
2024-05-09T00:34:29.125Z,58
2024-05-09T00:35:35.409Z,58
2024-05-09T00:36:41.357Z,58
2024-05-09T00:37:47.496Z,58
2024-05-09T00:38:53.694Z,58
2024-05-09T00:39:59.755Z,58
2024-05-09T00:41:05.847Z,58
2024-05-09T00:42:11.953Z,58
2024-05-09T00:43:18.068Z,58
2024-05-09T00:44:23.219Z,58
2024-05-09T00:45:29.331Z,58
2024-05-09T00:46:35.420Z,58
2024-05-09T00:47:41.552Z,58
2024-05-09T00:48:47.694Z,58
2024-05-09T00:49:53.811Z,58
2024-05-09T00:50:59.897Z,58
2024-05-09T00:52:06.053Z,58
2024-05-09T00:53:12.143Z,58
2024-05-09T00:54:18.251Z,58
2024-05-09T00:55:24.361Z,58
2024-05-09T00:56:30.478Z,58
2024-05-09T00:57:36.596Z,58
2024-05-09T00:58:41.738Z,58
2024-05-09T00:59:47.864Z,58
2024-05-09T01:00:53.951Z,58
2024-05-09T01:02:00.093Z,58
2024-05-09T01:03:06.341Z,58
2024-05-09T01:04:12.297Z,58
2024-05-09T01:05:17.450Z,58
2024-05-09T01:06:23.573Z,58
2024-05-09T01:07:29.801Z,58
2024-05-09T01:08:35.944Z,58
2024-05-09T01:09:42.958Z,58
2024-05-09T01:10:48.042Z,58
2024-05-09T01:11:54.147Z,58
2024-05-09T01:13:00.294Z,58
2024-05-09T01:14:06.377Z,58
2024-05-09T01:15:12.492Z,58
2024-05-09T01:16:18.620Z,58
2024-05-09T01:17:24.754Z,58
2024-05-09T01:18:30.865Z,58
2024-05-09T01:19:35.988Z,58
2024-05-09T01:20:42.111Z,58
2024-05-09T01:21:48.206Z,58
2024-05-09T01:22:54.324Z,58
2024-05-09T01:24:00.463Z,58
2024-05-09T01:25:06.563Z,58
2024-05-09T01:26:12.686Z,58
2024-05-09T01:27:18.809Z,58
2024-05-09T01:28:24.928Z,58
2024-05-09T01:29:31.026Z,58
2024-05-09T01:30:37.153Z,58
2024-05-09T01:31:43.279Z,58
2024-05-09T01:32:49.388Z,58
2024-05-09T01:33:54.520Z,58
2024-05-09T01:35:00.653Z,58
2024-05-09T01:36:06.752Z,58
2024-05-09T01:37:12.860Z,58
2024-05-09T01:38:18.988Z,58
2024-05-09T01:39:25.092Z,58
2024-05-09T01:40:31.237Z,58
2024-05-09T01:41:37.336Z,58
2024-05-09T01:42:43.457Z,58
2024-05-09T01:43:49.585Z,58
2024-05-09T01:44:55.689Z,58
2024-05-09T01:47:07.924Z,58
2024-05-09T01:48:13.078Z,58
2024-05-09T01:49:19.168Z,58
2024-05-09T01:50:25.290Z,58
2024-05-09T01:51:31.416Z,58
2024-05-09T01:52:37.523Z,58
2024-05-09T01:53:43.626Z,58
2024-05-09T01:54:49.753Z,58
2024-05-09T01:55:55.864Z,58
2024-05-09T01:57:01.987Z,58
2024-05-09T01:58:08.128Z,58
2024-05-09T01:59:14.228Z,58
2024-05-09T02:00:20.336Z,58
2024-05-09T02:01:26.446Z,58
2024-05-09T02:02:31.564Z,58
2024-05-09T02:03:37.701Z,58
2024-05-09T02:04:43.856Z,58
2024-05-09T02:05:49.926Z,58
2024-05-09T02:06:56.077Z,58
2024-05-09T02:08:02.160Z,58
2024-05-09T02:09:08.303Z,58
2024-05-09T02:10:14.396Z,58
2024-05-09T02:11:20.504Z,58
2024-05-09T02:12:26.632Z,58
2024-05-09T02:13:32.758Z,58
2024-05-09T02:14:38.865Z,58
2024-05-09T02:15:44.989Z,58
2024-05-09T02:16:50.131Z,58
2024-05-09T02:17:56.224Z,58
2024-05-09T02:19:02.358Z,58
2024-05-09T02:20:08.451Z,58.5
2024-05-09T02:21:14.586Z,58.5
2024-05-09T02:22:20.706Z,58.5
2024-05-09T02:23:26.836Z,58.5
2024-05-09T02:24:32.943Z,58
2024-05-09T02:25:39.040Z,58
2024-05-09T02:26:45.190Z,58
2024-05-09T02:27:51.291Z,58
2024-05-09T02:28:57.426Z,58
2024-05-09T02:30:03.510Z,58
2024-05-09T02:31:08.644Z,58
2024-05-09T02:32:14.967Z,58
2024-05-09T02:33:22.011Z,58
2024-05-09T02:34:27.005Z,58
2024-05-09T02:35:33.114Z,58
2024-05-09T02:36:39.241Z,58
2024-05-09T02:37:45.335Z,58
2024-05-09T02:38:51.462Z,58
2024-05-09T02:39:57.597Z,58
2024-05-09T02:41:03.710Z,58
2024-05-09T02:42:09.822Z,58
2024-05-09T02:43:15.938Z,58.5
2024-05-09T02:44:22.051Z,58.5
2024-05-09T02:45:27.172Z,58.5
2024-05-09T02:46:33.302Z,58
2024-05-09T02:47:39.436Z,58
2024-05-09T02:48:45.531Z,58
2024-05-09T02:49:51.650Z,58
2024-05-09T02:50:57.784Z,58
2024-05-09T02:52:03.882Z,58
2024-05-09T02:53:10.011Z,58
2024-05-09T02:54:16.139Z,58
2024-05-09T02:55:22.235Z,58
2024-05-09T02:56:28.367Z,58
2024-05-09T02:57:34.458Z,58
2024-05-09T02:58:40.590Z,58
2024-05-09T02:59:45.735Z,58
2024-05-09T03:00:51.892Z,58
2024-05-09T03:01:57.951Z,58
2024-05-09T03:03:04.060Z,58
2024-05-09T03:04:10.184Z,58.5
2024-05-09T03:05:16.302Z,58
2024-05-09T03:06:22.412Z,58
2024-05-09T03:07:28.554Z,58
2024-05-09T03:08:34.662Z,58.5
2024-05-09T03:09:40.767Z,58
2024-05-09T03:10:46.881Z,58
2024-05-09T03:11:53.019Z,58
2024-05-09T03:12:59.114Z,58.5
2024-05-09T03:14:04.243Z,58
2024-05-09T03:15:10.373Z,58.5
2024-05-09T03:16:16.488Z,58.5
2024-05-09T03:17:22.604Z,58
2024-05-09T03:18:28.715Z,58
2024-05-09T03:19:34.848Z,58.5
2024-05-09T03:20:40.961Z,58.5
2024-05-09T03:21:47.070Z,58.5
2024-05-09T03:22:53.194Z,58.5
2024-05-09T03:23:59.312Z,58
2024-05-09T03:25:05.417Z,58
2024-05-09T03:26:11.543Z,58
2024-05-09T03:27:17.655Z,58
2024-05-09T03:28:22.791Z,58
2024-05-09T03:29:28.888Z,58
2024-05-09T03:30:35.039Z,58
2024-05-09T03:31:41.122Z,58
2024-05-09T03:32:47.236Z,58
2024-05-09T03:33:53.395Z,58
2024-05-09T03:34:59.487Z,58
2024-05-09T03:36:05.611Z,58
2024-05-09T03:37:11.710Z,58
2024-05-09T03:38:17.836Z,58
2024-05-09T03:39:24.028Z,58
2024-05-09T03:40:30.071Z,58
2024-05-09T03:41:36.190Z,58
2024-05-09T03:42:41.304Z,58
2024-05-09T03:43:47.438Z,58
2024-05-09T03:44:53.636Z,58
2024-05-09T03:45:59.679Z,58
2024-05-09T03:47:05.788Z,58
2024-05-09T03:48:11.901Z,58
2024-05-09T03:49:18.000Z,58
2024-05-09T03:50:24.124Z,58
2024-05-09T03:51:30.240Z,58
2024-05-09T03:52:36.373Z,58
2024-05-09T03:53:42.484Z,58
2024-05-09T03:54:48.588Z,58
2024-05-09T03:55:54.715Z,58
2024-05-09T03:57:01.131Z,58
2024-05-09T03:58:07.188Z,58
2024-05-09T03:59:12.084Z,58
2024-05-09T04:00:18.182Z,58
2024-05-09T04:01:24.389Z,58
2024-05-09T04:02:30.436Z,58
2024-05-09T04:03:36.553Z,58
2024-05-09T04:04:42.672Z,58
2024-05-09T04:05:48.794Z,58
2024-05-09T04:06:54.893Z,58
2024-05-09T04:08:01.020Z,58
2024-05-09T04:09:07.111Z,58
2024-05-09T04:10:13.256Z,58
2024-05-09T04:11:18.375Z,58
2024-05-09T04:12:24.481Z,58
2024-05-09T04:13:30.624Z,58
2024-05-09T04:14:36.716Z,58
2024-05-09T04:15:42.840Z,58
2024-05-09T04:16:48.954Z,58
2024-05-09T04:17:55.082Z,58
2024-05-09T04:19:01.209Z,58
2024-05-09T04:20:07.312Z,58
2024-05-09T04:21:13.436Z,58
2024-05-09T04:22:19.527Z,58
2024-05-09T04:23:25.694Z,58
2024-05-09T04:24:31.763Z,57.5
2024-05-09T04:25:36.911Z,57.5
2024-05-09T04:26:43.063Z,57.5
2024-05-09T04:27:49.128Z,57.5
2024-05-09T04:28:55.238Z,57.5
2024-05-09T04:30:01.379Z,57.5
2024-05-09T04:31:07.488Z,57.5
2024-05-09T04:32:13.605Z,57.5
2024-05-09T04:33:19.712Z,57.5
2024-05-09T04:34:25.830Z,57.5
2024-05-09T04:35:31.971Z,57.5
2024-05-09T04:36:38.092Z,57.5
2024-05-09T04:37:44.242Z,57.5
2024-05-09T04:38:50.314Z,57.5
2024-05-09T04:39:55.447Z,57.5
2024-05-09T04:41:01.557Z,57.5
2024-05-09T04:42:07.696Z,57
2024-05-09T04:43:13.811Z,57
2024-05-09T04:44:19.914Z,57
2024-05-09T04:45:26.018Z,57
2024-05-09T04:46:31.181Z,57
2024-05-09T04:47:37.285Z,57
2024-05-09T04:48:43.393Z,57
2024-05-09T04:49:49.493Z,57
2024-05-09T04:50:55.621Z,57
2024-05-09T04:52:01.748Z,57
2024-05-09T04:53:07.856Z,57
2024-05-09T04:54:13.964Z,57
2024-05-09T04:55:20.104Z,57
2024-05-09T04:56:26.215Z,57
2024-05-09T04:57:32.356Z,57
2024-05-09T04:58:38.442Z,57
2024-05-09T04:59:44.551Z,57
2024-05-09T05:00:49.739Z,57
2024-05-09T05:01:55.832Z,56.5
2024-05-09T05:03:01.934Z,56.5
2024-05-09T05:04:08.051Z,56.5
2024-05-09T05:05:14.223Z,56.5
2024-05-09T05:06:20.282Z,56.5
2024-05-09T05:07:26.397Z,56.5
2024-05-09T05:08:32.520Z,56.5
2024-05-09T05:09:38.671Z,56.5
2024-05-09T05:10:44.845Z,56.5
2024-05-09T05:11:50.871Z,56.5
2024-05-09T05:12:56.979Z,56.5
2024-05-09T05:14:03.076Z,56.5
2024-05-09T05:15:08.228Z,56.5
2024-05-09T05:16:14.349Z,56.5
2024-05-09T05:17:20.471Z,56.5
2024-05-09T05:18:26.622Z,56.5
2024-05-09T05:19:32.773Z,56.5
2024-05-09T05:20:39.848Z,56.5
2024-05-09T05:21:44.931Z,56.5
2024-05-09T05:22:51.049Z,56.5
2024-05-09T05:23:57.172Z,56.5
2024-05-09T05:25:03.287Z,56.5
2024-05-09T05:26:09.386Z,56.5
2024-05-09T05:27:15.502Z,56.5
2024-05-09T05:28:21.633Z,56.5
2024-05-09T05:29:26.770Z,56.5
2024-05-09T05:30:32.876Z,56.5
2024-05-09T05:31:38.994Z,56.5
2024-05-09T05:32:45.110Z,56.5
2024-05-09T05:33:51.238Z,56.5
2024-05-09T05:34:57.350Z,56.5
2024-05-09T05:36:03.470Z,56.5
2024-05-09T05:37:09.583Z,56.5
2024-05-09T05:38:15.692Z,56.5
2024-05-09T05:39:21.809Z,56.5
2024-05-09T05:40:27.955Z,56.5
2024-05-09T05:41:34.036Z,56.5
2024-05-09T05:42:40.165Z,56.5
2024-05-09T05:43:45.411Z,56.5
2024-05-09T05:44:51.405Z,56.5
2024-05-09T05:45:57.521Z,56.5
2024-05-09T05:47:03.640Z,56.5
2024-05-09T05:48:09.840Z,56.5
2024-05-09T05:49:15.877Z,56.5
2024-05-09T05:50:21.988Z,56.5
2024-05-09T05:51:28.101Z,56.5
2024-05-09T05:52:34.226Z,56.5
2024-05-09T05:53:40.350Z,56.5
2024-05-09T05:54:46.448Z,56.5
2024-05-09T05:55:52.608Z,56.5
2024-05-09T05:56:58.712Z,56.5
2024-05-09T05:58:03.826Z,56.5
2024-05-09T05:59:09.934Z,56.5
2024-05-09T06:00:16.072Z,56.5
2024-05-09T06:01:22.163Z,56.5
2024-05-09T06:02:28.287Z,56.5
2024-05-09T06:03:34.419Z,56.5
2024-05-09T06:04:40.515Z,56.5
2024-05-09T06:05:46.683Z,56.5
2024-05-09T06:06:52.853Z,56.5
2024-05-09T06:07:58.897Z,56.5
2024-05-09T06:09:05.001Z,56.5
2024-05-09T06:10:11.107Z,57
2024-05-09T06:11:17.225Z,57
2024-05-09T06:12:22.376Z,57
2024-05-09T06:13:28.496Z,57
2024-05-09T06:14:34.594Z,56.5
2024-05-09T06:15:40.732Z,56.5
2024-05-09T06:16:46.865Z,56.5
2024-05-09T06:17:52.939Z,56.5
2024-05-09T06:18:59.083Z,57
2024-05-09T06:20:05.187Z,57
2024-05-09T06:21:11.278Z,57
2024-05-09T06:22:17.402Z,57
2024-05-09T06:23:23.514Z,57
2024-05-09T06:24:29.646Z,57
2024-05-09T06:25:35.775Z,57
2024-05-09T06:26:40.906Z,57
2024-05-09T06:27:47.004Z,57
2024-05-09T06:28:53.254Z,57
2024-05-09T06:29:59.242Z,57
2024-05-09T06:31:05.352Z,57
2024-05-09T06:32:11.463Z,57
2024-05-09T06:33:17.816Z,57
2024-05-09T06:34:23.697Z,57
2024-05-09T06:35:29.832Z,57
2024-05-09T06:36:35.940Z,57
2024-05-09T06:37:42.080Z,56.5
2024-05-09T06:38:48.195Z,57
2024-05-09T06:39:54.360Z,57
2024-05-09T06:40:59.711Z,57
2024-05-09T06:42:05.522Z,57
2024-05-09T06:43:12.193Z,57
2024-05-09T06:44:18.067Z,57
2024-05-09T06:45:24.905Z,57
2024-05-09T06:46:30.119Z,57
2024-05-09T06:47:36.136Z,57
2024-05-09T06:48:42.325Z,57
2024-05-09T06:49:48.454Z,57
2024-05-09T06:50:54.486Z,57
2024-05-09T06:52:00.573Z,57
2024-05-09T06:53:06.698Z,56.5
2024-05-09T06:54:12.836Z,57
2024-05-09T06:55:17.952Z,56.5
2024-05-09T06:56:24.214Z,56.5
2024-05-09T06:57:30.166Z,56.5
2024-05-09T06:58:36.349Z,56.5
2024-05-09T06:59:42.463Z,56.5
2024-05-09T07:00:48.654Z,56.5
2024-05-09T07:01:54.654Z,56.5
2024-05-09T07:03:00.779Z,56.5
2024-05-09T07:04:06.882Z,56.5
2024-05-09T07:05:13.022Z,56.5
2024-05-09T07:06:19.393Z,56.5
2024-05-09T07:07:25.232Z,56.5
2024-05-09T07:08:31.616Z,56.5
2024-05-09T07:09:36.591Z,56.5
2024-05-09T07:10:42.750Z,56.5
2024-05-09T07:11:48.733Z,56.5
2024-05-09T07:12:54.844Z,56.5
2024-05-09T07:14:01.082Z,56.5
2024-05-09T07:15:07.243Z,56
2024-05-09T07:16:13.379Z,56
2024-05-09T07:17:19.335Z,56
2024-05-09T07:18:25.509Z,56
2024-05-09T07:19:31.751Z,56
2024-05-09T07:20:37.674Z,56
2024-05-09T07:21:43.821Z,56
2024-05-09T07:22:49.936Z,56
2024-05-09T07:23:55.054Z,56
2024-05-09T07:25:01.205Z,56
2024-05-09T07:26:07.236Z,56
2024-05-09T07:27:13.430Z,56
2024-05-09T07:28:19.512Z,56
2024-05-09T07:29:25.617Z,56
2024-05-09T07:30:31.730Z,56
2024-05-09T07:31:37.881Z,56
2024-05-09T07:32:44.056Z,56
2024-05-09T07:33:50.077Z,56
2024-05-09T07:34:56.275Z,56
2024-05-09T07:37:08.413Z,56
2024-05-09T07:38:13.555Z,56
2024-05-09T07:39:19.663Z,56
2024-05-09T07:40:25.787Z,56
2024-05-09T07:41:31.979Z,56
2024-05-09T07:42:38.032Z,56
2024-05-09T07:44:50.252Z,56
2024-05-09T07:45:56.567Z,56
2024-05-09T07:47:02.495Z,56
2024-05-09T07:48:08.623Z,56
2024-05-09T07:49:14.724Z,56
2024-05-09T07:50:20.830Z,56
2024-05-09T07:51:26.968Z,56
2024-05-09T07:52:32.100Z,56
2024-05-09T07:53:38.316Z,56
2024-05-09T07:54:44.334Z,56
2024-05-09T07:55:50.453Z,56
2024-05-09T07:56:56.552Z,56
2024-05-09T07:58:02.671Z,56
2024-05-09T07:59:08.822Z,56
2024-05-09T08:00:14.916Z,56
2024-05-09T08:01:21.072Z,56
2024-05-09T08:02:27.182Z,56
2024-05-09T08:03:33.243Z,56
2024-05-09T08:04:39.366Z,56
2024-05-09T08:05:45.482Z,56
2024-05-09T08:06:50.780Z,56
2024-05-09T08:07:57.910Z,56
2024-05-09T08:09:02.847Z,56
2024-05-09T08:10:08.982Z,56
2024-05-09T08:11:15.082Z,56
2024-05-09T08:12:21.267Z,56
2024-05-09T08:13:27.381Z,56
2024-05-09T08:14:33.450Z,56
2024-05-09T08:15:39.556Z,56
2024-05-09T08:16:45.660Z,56
2024-05-09T08:17:51.786Z,56
2024-05-09T08:18:57.902Z,56
2024-05-09T08:20:04.004Z,56
2024-05-09T08:21:09.150Z,56
2024-05-09T08:22:15.263Z,56
2024-05-09T08:23:21.390Z,56
2024-05-09T08:24:27.510Z,56
2024-05-09T08:25:33.623Z,56
2024-05-09T08:26:39.741Z,56
2024-05-09T08:27:44.869Z,56
2024-05-09T08:28:51.016Z,56
2024-05-09T08:29:57.108Z,56
2024-05-09T08:31:03.235Z,56
2024-05-09T08:32:09.333Z,56
2024-05-09T08:33:15.536Z,56
2024-05-09T08:34:21.591Z,56
2024-05-09T08:35:27.673Z,56
2024-05-09T08:36:33.801Z,56
2024-05-09T08:37:39.918Z,56
2024-05-09T08:38:46.034Z,56
2024-05-09T08:39:52.197Z,56
2024-05-09T08:40:58.428Z,56
2024-05-09T08:42:03.493Z,56
2024-05-09T08:43:09.631Z,56
2024-05-09T08:44:15.630Z,56
2024-05-09T08:45:21.746Z,56
2024-05-09T08:46:27.963Z,56
2024-05-09T08:47:33.993Z,56
2024-05-09T08:48:40.265Z,56
2024-05-09T08:49:46.409Z,56
2024-05-09T08:50:52.462Z,56
2024-05-09T08:51:58.567Z,55.5
2024-05-09T08:53:04.562Z,55.5
2024-05-09T08:54:10.748Z,55.5
2024-05-09T08:55:16.808Z,55.5
2024-05-09T08:56:22.080Z,55.5
2024-05-09T08:57:28.072Z,55.5
2024-05-09T08:58:34.194Z,55.5
2024-05-09T08:59:40.289Z,55.5
2024-05-09T09:00:46.434Z,55.5
2024-05-09T09:01:52.513Z,55.5
2024-05-09T09:02:58.627Z,55
2024-05-09T09:04:04.764Z,55
2024-05-09T09:05:10.860Z,55
2024-05-09T09:06:17.042Z,55
2024-05-09T09:07:23.176Z,55
2024-05-09T09:08:29.219Z,55
2024-05-09T09:09:35.431Z,55
2024-05-09T09:10:40.477Z,55
2024-05-09T09:11:46.588Z,55
2024-05-09T09:12:52.701Z,55
2024-05-09T09:13:58.827Z,55
2024-05-09T09:15:04.962Z,55
2024-05-09T09:16:11.099Z,55
2024-05-09T09:17:17.163Z,55
2024-05-09T09:18:23.314Z,55
2024-05-09T09:19:29.384Z,55
2024-05-09T09:20:35.510Z,55
2024-05-09T09:21:41.650Z,55.5
2024-05-09T09:22:47.768Z,55.5
2024-05-09T09:23:53.864Z,55.5
2024-05-09T09:24:59.024Z,55.5
2024-05-09T09:26:05.125Z,55.5
2024-05-09T09:27:11.233Z,55.5
2024-05-09T09:28:17.342Z,55.5
2024-05-09T09:29:23.480Z,55.5
2024-05-09T09:30:29.912Z,55.5
2024-05-09T09:31:35.868Z,55.5
2024-05-09T09:32:41.829Z,55.5
2024-05-09T09:33:47.953Z,55
2024-05-09T09:34:54.112Z,55
2024-05-09T09:36:00.158Z,55
2024-05-09T09:37:06.280Z,55
2024-05-09T09:38:12.407Z,55.5
2024-05-09T09:39:17.630Z,55
2024-05-09T09:40:23.664Z,55.5
2024-05-09T09:41:29.779Z,55.5
2024-05-09T09:42:36.057Z,55.5
2024-05-09T09:43:42.115Z,55.5
2024-05-09T09:44:48.137Z,55.5
2024-05-09T09:45:54.228Z,55.5
2024-05-09T09:47:00.344Z,55
2024-05-09T09:48:06.494Z,55
2024-05-09T09:49:12.596Z,55
2024-05-09T09:50:18.716Z,55
2024-05-09T09:51:24.829Z,55
2024-05-09T09:52:30.920Z,55
2024-05-09T09:53:36.090Z,55
2024-05-09T09:54:42.189Z,55
2024-05-09T09:55:48.292Z,55
2024-05-09T09:56:54.421Z,55
2024-05-09T09:58:00.543Z,55
2024-05-09T09:59:06.668Z,55
2024-05-09T10:00:12.778Z,55
2024-05-09T10:01:18.910Z,55
2024-05-09T10:02:25.001Z,55
2024-05-09T10:03:31.120Z,54.5
2024-05-09T10:04:37.258Z,54.5
2024-05-09T10:05:43.386Z,54.5
2024-05-09T10:06:49.485Z,54.5
2024-05-09T10:07:54.681Z,54.5
2024-05-09T10:09:00.720Z,54.5
2024-05-09T10:10:06.861Z,54.5
2024-05-09T10:11:13.194Z,54.5
2024-05-09T10:12:19.074Z,54.5
2024-05-09T10:13:25.205Z,55
2024-05-09T10:15:37.427Z,55
2024-05-09T10:16:43.558Z,55
2024-05-09T10:17:49.663Z,55
2024-05-09T10:18:55.838Z,55
2024-05-09T10:20:01.907Z,55
2024-05-09T10:21:08.020Z,55
2024-05-09T10:22:13.133Z,55
2024-05-09T10:23:19.243Z,55
2024-05-09T10:24:25.522Z,55
2024-05-09T10:25:31.487Z,55
2024-05-09T10:26:37.717Z,55
2024-05-09T10:27:43.951Z,55
2024-05-09T10:28:49.869Z,55
2024-05-09T10:29:55.948Z,55
2024-05-09T10:31:02.188Z,55
2024-05-09T10:32:08.372Z,55
2024-05-09T10:33:14.436Z,55
2024-05-09T10:34:20.536Z,55
2024-05-09T10:35:26.550Z,55
2024-05-09T10:36:31.862Z,55
2024-05-09T10:37:37.888Z,55
2024-05-09T10:38:43.904Z,55
2024-05-09T10:39:50.082Z,55
2024-05-09T10:40:56.163Z,55
2024-05-09T10:42:02.288Z,55
2024-05-09T10:43:08.362Z,55
2024-05-09T10:44:14.497Z,55
2024-05-09T10:45:20.617Z,55
2024-05-09T10:46:26.858Z,55
2024-05-09T10:47:32.837Z,55
2024-05-09T10:48:38.971Z,55
2024-05-09T10:49:45.076Z,55
2024-05-09T10:50:50.213Z,55
2024-05-09T10:51:56.319Z,55
2024-05-09T10:53:02.569Z,55
2024-05-09T10:54:09.073Z,55
2024-05-09T10:55:14.810Z,55
2024-05-09T10:56:20.825Z,55
2024-05-09T10:57:27.103Z,55
2024-05-09T10:58:33.031Z,55
2024-05-09T10:59:39.180Z,55
2024-05-09T11:00:45.303Z,55
2024-05-09T11:01:51.436Z,55
2024-05-09T11:02:57.537Z,55
2024-05-09T11:04:03.612Z,55
2024-05-09T11:05:08.912Z,54.5
2024-05-09T11:06:14.946Z,54.5
2024-05-09T11:07:20.997Z,54.5
2024-05-09T11:08:27.085Z,54.5
2024-05-09T11:09:33.259Z,54.5
2024-05-09T11:10:39.331Z,54.5
2024-05-09T11:11:45.460Z,54.5
2024-05-09T11:12:51.565Z,54.5
2024-05-09T11:13:57.765Z,55
2024-05-09T11:15:03.871Z,55
2024-05-09T11:16:09.958Z,55
2024-05-09T11:17:16.033Z,55
2024-05-09T11:18:22.147Z,55
2024-05-09T11:19:27.278Z,55.5
2024-05-09T11:20:33.419Z,55.5
2024-05-09T11:21:39.528Z,55.5
2024-05-09T11:22:45.626Z,55.5
2024-05-09T11:23:51.756Z,55.5
2024-05-09T11:24:57.839Z,55.5
2024-05-09T11:26:03.999Z,55.5
2024-05-09T11:27:10.109Z,55.5
2024-05-09T11:28:16.207Z,55.5
2024-05-09T11:29:22.326Z,55.5
2024-05-09T11:30:28.485Z,55.5
2024-05-09T11:31:34.562Z,55.5
2024-05-09T11:32:40.658Z,56
2024-05-09T11:33:45.857Z,56
2024-05-09T11:34:51.932Z,56
2024-05-09T11:35:58.049Z,55.5
2024-05-09T11:37:04.154Z,55.5
2024-05-09T11:38:10.311Z,55.5
2024-05-09T11:39:16.374Z,56
2024-05-09T11:40:22.501Z,56
2024-05-09T11:41:28.634Z,55.5
2024-05-09T11:42:34.755Z,55.5
2024-05-09T11:43:40.954Z,55.5
2024-05-09T11:44:46.960Z,55.5
2024-05-09T11:45:53.195Z,55.5
2024-05-09T11:46:59.224Z,55.5
2024-05-09T11:48:04.392Z,55.5
2024-05-09T11:49:10.473Z,55.5
2024-05-09T11:50:16.569Z,55.5
2024-05-09T11:51:22.685Z,55.5
2024-05-09T11:52:28.794Z,55.5
2024-05-09T11:53:34.951Z,55.5
2024-05-09T11:54:41.054Z,55.5
2024-05-09T11:55:47.154Z,55.5
2024-05-09T11:56:53.291Z,55.5
2024-05-09T11:57:59.378Z,55.5
2024-05-09T11:59:05.625Z,55.5
2024-05-09T12:00:11.613Z,55.5
2024-05-09T12:01:17.754Z,55.5
2024-05-09T12:02:22.899Z,55.5
2024-05-09T12:03:28.992Z,55.5
2024-05-09T12:04:35.115Z,56
2024-05-09T12:05:41.206Z,56
2024-05-09T12:06:47.330Z,56
2024-05-09T12:07:53.464Z,56
2024-05-09T12:08:58.612Z,56
2024-05-09T12:10:04.707Z,56
2024-05-09T12:11:10.822Z,56
2024-05-09T12:12:16.943Z,56
2024-05-09T12:13:23.167Z,56
2024-05-09T12:14:29.269Z,56
2024-05-09T12:15:35.293Z,56
2024-05-09T12:16:41.416Z,56
2024-05-09T12:17:47.959Z,56
2024-05-09T12:18:54.898Z,56
2024-05-09T12:19:59.808Z,56
2024-05-09T12:21:05.876Z,56
2024-05-09T12:22:12.006Z,56
2024-05-09T12:23:17.141Z,56
2024-05-09T12:24:23.242Z,56
2024-05-09T12:25:29.359Z,56
2024-05-09T12:26:35.477Z,56
2024-05-09T12:27:41.616Z,56
2024-05-09T12:28:47.750Z,56
2024-05-09T12:29:53.837Z,56
2024-05-09T12:31:00.096Z,56
2024-05-09T12:32:06.061Z,56
2024-05-09T12:33:12.188Z,56
2024-05-09T12:34:18.307Z,56
2024-05-09T12:35:24.409Z,56
2024-05-09T12:36:30.547Z,56
2024-05-09T12:37:35.650Z,56
2024-05-09T12:38:41.800Z,56
2024-05-09T12:39:47.903Z,56
2024-05-09T12:40:54.044Z,56
2024-05-09T12:42:00.133Z,56
2024-05-09T12:43:06.252Z,56
2024-05-09T12:44:12.366Z,56
2024-05-09T12:45:18.488Z,56
2024-05-09T12:46:24.671Z,56
2024-05-09T12:47:30.751Z,56
2024-05-09T12:48:36.920Z,56
2024-05-09T12:49:43.002Z,56
2024-05-09T12:50:49.096Z,56
2024-05-09T12:51:54.244Z,56
2024-05-09T12:53:00.343Z,56
2024-05-09T12:54:06.652Z,56
2024-05-09T12:55:12.703Z,56
2024-05-09T12:56:18.978Z,56
2024-05-09T12:57:24.871Z,55.5
2024-05-09T12:58:30.930Z,55.5
2024-05-09T12:59:37.019Z,55.5
2024-05-09T13:00:43.274Z,55.5
2024-05-09T13:01:49.466Z,55.5
2024-05-09T13:02:55.365Z,55.5
2024-05-09T13:04:01.507Z,56
2024-05-09T13:05:07.588Z,56
2024-05-09T13:06:12.762Z,56
2024-05-09T13:07:18.839Z,56
2024-05-09T13:08:24.951Z,56
2024-05-09T13:09:31.173Z,56
2024-05-09T13:10:37.223Z,56
2024-05-09T13:11:43.402Z,56.5
2024-05-09T13:12:49.443Z,56.5
2024-05-09T13:13:55.658Z,56.5
2024-05-09T13:15:01.693Z,56.5
2024-05-09T13:16:07.782Z,56.5
2024-05-09T13:17:14.019Z,56.5
2024-05-09T13:18:20.027Z,56.5
2024-05-09T13:19:26.126Z,56.5
2024-05-09T13:20:31.259Z,56.5
2024-05-09T13:21:37.380Z,56.5
2024-05-09T13:22:43.509Z,56.5
2024-05-09T13:23:49.627Z,56.5
2024-05-09T13:24:55.806Z,56.5
2024-05-09T13:26:01.829Z,56.5
2024-05-09T13:27:07.963Z,56.5
2024-05-09T13:28:14.095Z,56.5
2024-05-09T13:29:20.190Z,56.5
2024-05-09T13:30:26.307Z,56.5
2024-05-09T13:31:32.425Z,56.5
2024-05-09T13:32:38.540Z,56.5
2024-05-09T13:33:44.754Z,56.5
2024-05-09T13:34:49.786Z,56.5
2024-05-09T13:35:56.072Z,56.5
2024-05-09T13:37:02.037Z,56.5
2024-05-09T13:38:08.151Z,56.5
2024-05-09T13:39:14.265Z,56.5
2024-05-09T13:40:20.383Z,56.5
2024-05-09T13:41:27.220Z,56.5
2024-05-09T13:42:32.804Z,56.5
2024-05-09T13:43:38.765Z,56.5
2024-05-09T13:44:44.849Z,56.5
2024-05-09T13:45:51.089Z,56.5
2024-05-09T13:46:57.096Z,56.5
2024-05-09T13:48:03.195Z,56.5
2024-05-09T13:49:08.329Z,56.5
2024-05-09T13:50:14.450Z,56.5
2024-05-09T13:51:20.563Z,56.5
2024-05-09T13:52:26.746Z,56.5
2024-05-09T13:53:32.811Z,56.5
2024-05-09T13:54:38.935Z,56.5
2024-05-09T13:55:45.018Z,56.5
2024-05-09T13:56:51.152Z,56.5
2024-05-09T13:57:57.265Z,56.5
2024-05-09T13:59:03.424Z,56.5
2024-05-09T14:00:09.505Z,56.5
2024-05-09T14:01:15.632Z,56.5
2024-05-09T14:02:21.732Z,56.5
2024-05-09T14:03:26.874Z,56.5
2024-05-09T14:04:32.981Z,56.5
2024-05-09T14:05:39.199Z,56.5
2024-05-09T14:06:45.230Z,56.5
2024-05-09T14:07:51.348Z,56.5
2024-05-09T14:08:57.473Z,56.5
2024-05-09T14:10:03.565Z,56.5
2024-05-09T14:11:09.724Z,57
2024-05-09T14:12:15.800Z,57
2024-05-09T14:13:21.964Z,56.5
2024-05-09T14:14:28.055Z,57
2024-05-09T14:15:34.223Z,57
2024-05-09T14:16:40.275Z,56.5
2024-05-09T14:17:45.508Z,57
2024-05-09T14:18:51.583Z,57
2024-05-09T14:19:57.656Z,57
2024-05-09T14:21:03.758Z,57
2024-05-09T14:22:09.861Z,57
2024-05-09T14:23:16.121Z,57
2024-05-09T14:24:22.117Z,57
2024-05-09T14:25:28.266Z,57
2024-05-09T14:26:34.330Z,57
2024-05-09T14:27:40.452Z,57
2024-05-09T14:28:46.630Z,57
2024-05-09T14:29:52.690Z,57
2024-05-09T14:30:58.831Z,57
2024-05-09T14:32:04.006Z,57
2024-05-09T14:33:10.086Z,57
2024-05-09T14:34:16.166Z,57
2024-05-09T14:35:22.333Z,57
2024-05-09T14:36:28.511Z,57
2024-05-09T14:37:34.515Z,57
2024-05-09T14:38:40.872Z,57
2024-05-09T14:39:46.744Z,57
2024-05-09T14:40:52.966Z,57
2024-05-09T14:41:58.988Z,57
2024-05-09T14:43:05.106Z,57
2024-05-09T14:44:11.228Z,57
2024-05-09T14:45:17.317Z,57
2024-05-09T14:46:22.533Z,57
2024-05-09T14:47:28.576Z,57
2024-05-09T14:48:34.726Z,57
2024-05-09T14:49:40.798Z,57
2024-05-09T14:50:47.023Z,57
2024-05-09T14:51:53.108Z,57
2024-05-09T14:52:59.160Z,57
2024-05-09T14:54:05.311Z,57
2024-05-09T14:55:11.383Z,57
2024-05-09T14:56:17.527Z,57
2024-05-09T14:57:23.615Z,57
2024-05-09T14:58:29.794Z,57
2024-05-09T14:59:35.922Z,57
2024-05-09T15:00:41.022Z,57
2024-05-09T15:01:47.119Z,57
2024-05-09T15:02:53.212Z,57
2024-05-09T15:03:59.363Z,57
2024-05-09T15:05:06.016Z,57
2024-05-09T15:06:11.573Z,57
2024-05-09T15:07:17.787Z,57
2024-05-09T15:08:23.873Z,57
2024-05-09T15:09:29.964Z,57
2024-05-09T15:10:36.282Z,57
2024-05-09T15:11:42.315Z,57
2024-05-09T15:12:48.394Z,57
2024-05-09T15:13:54.390Z,57
2024-05-09T15:14:59.525Z,57
2024-05-09T15:16:05.668Z,57
2024-05-09T15:17:11.749Z,57
2024-05-09T15:18:17.883Z,57
2024-05-09T15:19:24.001Z,57
2024-05-09T15:20:30.132Z,57
2024-05-09T15:21:36.231Z,57
2024-05-09T15:22:42.369Z,57
2024-05-09T15:23:48.455Z,57
2024-05-09T15:24:54.604Z,57